createdAt,value
2018-05-03T00:00:04.767Z,17.1
2018-05-03T00:15:04.312Z,17.1
2018-05-03T00:30:04.656Z,17.1
2018-05-03T00:45:05.618Z,17.2
2018-05-03T01:00:05.449Z,17.1
2018-05-03T01:15:04.480Z,16.7
2018-05-03T01:30:05.315Z,16.5
2018-05-03T01:45:05.090Z,16.3
2018-05-03T02:00:05.235Z,16.7
2018-05-03T02:15:05.170Z,16.6
2018-05-03T02:30:05.374Z,16.8
2018-05-03T02:45:05.193Z,16.3
2018-05-03T03:00:04.689Z,16.6
2018-05-03T03:15:04.663Z,16.4
2018-05-03T03:30:05.205Z,16.4
2018-05-03T03:45:04.948Z,16.3
2018-05-03T04:00:04.442Z,16.3
2018-05-03T04:15:04.802Z,16.3
2018-05-03T04:30:04.973Z,16.3
2018-05-03T04:45:04.967Z,16.1
2018-05-03T05:00:05.051Z,16.3
2018-05-03T05:15:05.031Z,16.3
2018-05-03T05:30:04.735Z,16.1
2018-05-03T05:45:04.701Z,15.9
2018-05-03T06:00:04.773Z,16.2
2018-05-03T06:15:04.723Z,16.1
2018-05-03T06:30:04.955Z,16.2
2018-05-03T06:45:04.429Z,16.3
2018-05-03T07:00:04.461Z,16.4
2018-05-03T07:15:04.419Z,16.5
2018-05-03T07:30:04.623Z,16.5
2018-05-03T07:45:05.251Z,16.4
2018-05-03T08:00:05.184Z,16.6
2018-05-03T08:15:05.037Z,16.8
2018-05-03T08:30:04.808Z,16.6
2018-05-03T08:45:04.804Z,16.6
2018-05-03T09:00:04.305Z,16.8
2018-05-03T09:15:04.764Z,16.8
2018-05-03T09:30:04.930Z,16.9
2018-05-03T09:45:04.369Z,17.2
2018-05-03T10:00:04.420Z,17.1
2018-05-03T10:15:04.829Z,17.1
2018-05-03T10:30:05.048Z,17.5
2018-05-03T10:45:05.172Z,17.5
2018-05-03T11:00:04.697Z,18
2018-05-03T11:15:05.126Z,18.2
2018-05-03T11:30:04.253Z,18.3
2018-05-03T11:45:05.168Z,18.6
2018-05-03T12:00:04.698Z,19
2018-05-03T12:15:05.167Z,18.9
2018-05-03T12:30:04.372Z,19.1
2018-05-03T12:45:04.849Z,19
2018-05-03T13:00:04.320Z,19.4
2018-05-03T13:15:04.329Z,19.6
2018-05-03T13:30:04.483Z,19.3
2018-05-03T13:45:04.424Z,19.7
2018-05-03T14:00:04.424Z,19.5
2018-05-03T14:15:04.401Z,19.5
2018-05-03T14:30:04.624Z,19.8
2018-05-03T14:45:04.546Z,20
2018-05-03T15:00:04.530Z,20.3
2018-05-03T15:15:04.487Z,20.5
2018-05-03T15:30:04.674Z,20.4
2018-05-03T15:45:05.163Z,20.6
2018-05-03T16:00:05.155Z,20.5
2018-05-03T16:15:04.712Z,20.9
2018-05-03T16:30:04.564Z,20.9
2018-05-03T16:45:04.662Z,20.9
2018-05-03T17:00:05.303Z,20.9
2018-05-03T17:15:05.078Z,20.7
2018-05-03T17:30:04.869Z,20.7
2018-05-03T17:45:04.969Z,20.3
2018-05-03T18:00:04.778Z,20
2018-05-03T18:15:04.612Z,20
2018-05-03T18:30:05.245Z,19.9
2018-05-03T18:45:04.805Z,19.9
2018-05-03T19:00:04.413Z,19.7
2018-05-03T19:15:04.400Z,19.7
2018-05-03T19:30:04.769Z,19.6
2018-05-03T19:45:04.861Z,19.5
2018-05-03T20:00:04.397Z,19.7
2018-05-03T20:15:04.994Z,19.6
2018-05-03T20:30:05.407Z,19.5
2018-05-03T20:45:04.865Z,19.7
2018-05-03T21:00:04.402Z,19.7
2018-05-03T21:15:05.073Z,19.8
2018-05-03T21:30:04.864Z,19.8
2018-05-03T21:45:04.974Z,19.9
2018-05-03T22:00:04.519Z,19.8
2018-05-03T22:15:04.521Z,19.9
2018-05-03T22:30:04.617Z,19.7
2018-05-03T22:45:04.725Z,19.3
2018-05-03T23:00:05.435Z,19.5
2018-05-03T23:15:05.042Z,19.4
2018-05-03T23:30:05.423Z,19.2
2018-05-03T23:45:04.618Z,19.2
